METAR Data
IDs: Format: Raw Decoded Include TAF

Data at: 2057 UTC 18 Sep 2018

KWJF 181956Z 21015KT 10SM CLR 31/M13 A2988 RMK AO2 SLP103 T03111128
KWJF 181856Z 23012KT 10SM CLR 31/M14 A2990 RMK AO2 SLP109 T03061139
KWJF 181756Z 24009KT 10SM CLR 29/M13 A2992 RMK AO2 SLP111 T02941128 10294 20117 58009
KWJF 181656Z 00000KT 10SM CLR 26/M06 A2993 RMK AO2 SLP120 T02561061
KWJF 181556Z 00000KT 10SM CLR 21/M01 A2994 RMK AO2 SLP124 T02061006
KWJF 181456Z 00000KT 10SM CLR 17/M01 A2995 RMK AO2 SLP128 T01721006 53006
KWJF 181356Z 26005KT 10SM CLR 13/M02 A2993 RMK AO2 SLP125 T01281017
KWJF 181256Z AUTO 32004KT 10SM CLR 14/01 A2993 RMK AO2 SLP120 T01390006
KWJF 181156Z AUTO 28011KT 10SM CLR 17/M02 A2993 RMK AO2 SLP116 T01671017 10211 20133 55004
KWJF 181056Z AUTO 27010KT 10SM CLR 18/M06 A2992 RMK AO2 SLP114 T01831061
KWJF 180956Z AUTO 24008KT 10SM CLR 18/M05 A2993 RMK AO2 SLP115 T01781050
KWJF 180856Z AUTO 28008KT 10SM CLR 14/M06 A2994 RMK AO2 SLP122 T01391056 50003
KWJF 180756Z AUTO 28006KT 10SM CLR 16/M08 A2994 RMK AO2 SLP123 T01561078 403220094
KWJF 180656Z AUTO 27010KT 10SM CLR 18/M09 A2994 RMK AO2 SLP121 T01781094
KWJF 180556Z AUTO 25010KT 10SM CLR 22/M16 A2993 RMK AO2 SLP117 T02171156 10306 20194 51008
KWJF 180456Z AUTO 26010KT 10SM CLR 20/M04 A2993 RMK AO2 SLP118 T02001039
KWJF 180356Z 24011KT 10SM CLR 23/M03 A2993 RMK AO2 SLP121 T02281033
KWJF 180256Z 25014KT 10SM CLR 24/M01 A2991 RMK AO2 SLP113 T02391011 53007
KWJF 180156Z AUTO 25012KT 10SM CLR 26/01 A2989 RMK AO2 SLP110 T02560011
KWJF 180056Z AUTO 23015KT 10SM CLR 29/M02 A2989 RMK AO2 SLP108 T02891017
KWJF 172356Z AUTO 22017G21KT 10SM CLR 31/M05 A2988 RMK AO2 SLP103 T03061050 10322 20283 56010
KWJF 172256Z AUTO 23015G23KT 10SM CLR 31/M09 A2989 RMK AO2 PK WND 21026/2212 SLP104 T03111094
KWJF 172156Z 24016G24KT 10SM CLR 32/M12 A2990 RMK AO2 SLP107 T03171117
KWJF 172056Z 22016G23KT 10SM CLR 32/M13 A2992 RMK AO2 SLP113 T03171128 58015
KWJF 171956Z 24015G22KT 10SM CLR 31/M12 A2994 RMK AO2 SLP120 T03111117
KWJF 171856Z 22011KT 10SM CLR 31/M12 A2995 RMK AO2 SLP124 T03111117
KWJF 171756Z VRB05KT 10SM CLR 28/M09 A2996 RMK AO2 SLP129 T02831089 10283 20094 58002
KWJF 171656Z 00000KT 10SM CLR 26/M07 A2997 RMK AO2 SLP131 T02611067
KWJF 171556Z 12004KT 10SM CLR 21/M01 A2997 RMK AO2 SLP136 T02061011
KWJF 171456Z 28004KT 10SM CLR 19/00 A2997 RMK AO2 SLP135 T01890000 53009
KWJF 171356Z 29011KT 10SM CLR 14/01 A2996 RMK AO2 SLP131 T01440006
KWJF 171256Z AUTO 00000KT 10SM CLR 11/M04 A2995 RMK AO2 SLP130 T01061039
KWJF 171156Z AUTO 00000KT 10SM CLR 14/M04 A2994 RMK AO2 SLP124 T01441039 10189 20139 58003
KWJF 171056Z AUTO 30005KT 10SM CLR 14/M04 A2994 RMK AO2 SLP124 T01441039
KWJF 170956Z AUTO 33004KT 10SM CLR 14/M04 A2995 RMK AO2 SLP126 T01441039